createdAt,value
2023-11-02T00:00:30.865Z,99443.57
2023-11-02T00:04:18.412Z,99443.23
2023-11-02T00:10:44.768Z,99450.48
2023-11-02T00:14:14.393Z,99442.27
2023-11-02T00:17:54.900Z,99446.77
2023-11-02T00:21:31.792Z,99439.42
2023-11-02T00:25:04.320Z,99434.02
2023-11-02T00:28:33.117Z,99434.46
2023-11-02T00:32:00.750Z,99424.33
2023-11-02T00:35:28.540Z,99423.59
2023-11-02T00:38:59.230Z,99428.06
2023-11-02T00:42:25.793Z,99421.92
2023-11-02T00:45:55.263Z,99416.13
2023-11-02T00:49:25.937Z,99418.88
2023-11-02T00:52:54.433Z,99419.70
2023-11-02T00:56:24.024Z,99418.64
2023-11-02T00:59:53.475Z,99412.36
2023-11-02T01:03:21.559Z,99414.05
2023-11-02T01:06:52.459Z,99407.95
2023-11-02T01:10:23.431Z,99410.38
2023-11-02T01:13:50.886Z,99408.43
2023-11-02T01:17:31.998Z,99397.83
2023-11-02T01:21:05.119Z,99395.20
2023-11-02T01:24:35.250Z,99391.36
2023-11-02T01:28:08.139Z,99386.83
2023-11-02T01:31:38.231Z,99387.68
2023-11-02T01:35:33.586Z,99380.73
2023-11-02T01:39:12.856Z,99381.90
2023-11-02T01:42:49.055Z,99386.38
2023-11-02T01:46:26.451Z,99377.30
2023-11-02T01:50:06.297Z,99367.71
2023-11-02T01:53:47.281Z,99358.42
2023-11-02T01:57:20.705Z,99354.70
2023-11-02T02:00:59.476Z,99357.76
2023-11-02T02:04:39.251Z,99347.81
2023-11-02T02:08:19.150Z,99336.66
2023-11-02T02:12:00.321Z,99330.02
2023-11-02T02:15:44.212Z,99331.19
2023-11-02T02:19:27.064Z,99328.71
2023-11-02T02:23:04.507Z,99330.21
2023-11-02T02:26:59.161Z,99330.17
2023-11-02T02:31:01.626Z,99338.14
2023-11-02T02:34:57.438Z,99340.52
2023-11-02T02:38:35.125Z,99333.20
2023-11-02T02:42:05.873Z,99324.84
2023-11-02T02:45:37.160Z,99315.79
2023-11-02T02:49:07.377Z,99313.67
2023-11-02T02:52:37.380Z,99313.31
2023-11-02T02:56:11.781Z,99300.48
2023-11-02T02:59:42.079Z,99299.11
2023-11-02T03:03:12.340Z,99296.17
2023-11-02T03:06:40.613Z,99293.76
2023-11-02T03:10:14.398Z,99290.11
2023-11-02T03:13:46.320Z,99286.30
2023-11-02T03:17:24.165Z,99279.02
2023-11-02T03:20:52.273Z,99284.73
2023-11-02T03:24:31.427Z,99281.11
2023-11-02T03:28:15.185Z,99269.33
2023-11-02T03:31:55.380Z,99263.59
2023-11-02T03:35:31.196Z,99253.01
2023-11-02T03:39:16.079Z,99250.95
2023-11-02T03:42:51.848Z,99259.65
2023-11-02T03:46:30.004Z,99259.85
2023-11-02T03:50:10.604Z,99257.81
2023-11-02T03:53:48.851Z,99245.16
2023-11-02T03:57:26.465Z,99244.13
2023-11-02T04:01:04.253Z,99243.77
2023-11-02T04:04:41.749Z,99243.77
2023-11-02T04:08:19.587Z,99236.52
2023-11-02T04:12:01.550Z,99230.80
2023-11-02T04:15:29.661Z,99222.30
2023-11-02T04:18:57.628Z,99217.78
2023-11-02T04:22:25.642Z,99222.81
2023-11-02T04:25:56.908Z,99218.65
2023-11-02T04:29:24.723Z,99208.89
2023-11-02T04:32:52.040Z,99206.79
2023-11-02T04:36:19.877Z,99201.70
2023-11-02T04:39:47.992Z,99199.92
2023-11-02T04:43:16.034Z,99198.34
2023-11-02T04:46:46.959Z,99196.95
2023-11-02T04:50:17.841Z,99199.21
2023-11-02T04:53:48.454Z,99193.35
2023-11-02T04:57:16.226Z,99180.55
2023-11-02T05:00:44.538Z,99182.17
2023-11-02T05:04:13.957Z,99184.27
2023-11-02T05:07:43.056Z,99186.91
2023-11-02T05:11:10.494Z,99182.60
2023-11-02T05:14:38.379Z,99168.70
2023-11-02T05:18:07.832Z,99158.08
2023-11-02T05:21:36.510Z,99157.49
2023-11-02T05:25:05.172Z,99156.40
2023-11-02T05:28:32.988Z,99154.11
2023-11-02T05:32:01.030Z,99152.17
2023-11-02T05:35:29.544Z,99145.04
2023-11-02T05:38:56.858Z,99144.33
2023-11-02T05:42:24.651Z,99142.91
2023-11-02T05:45:52.868Z,99136.13
2023-11-02T05:49:20.189Z,99126.74
2023-11-02T05:52:48.202Z,99126.56
2023-11-02T05:56:16.880Z,99118.08
2023-11-02T05:59:43.902Z,99107.17
2023-11-02T06:03:12.287Z,99107.53
2023-11-02T06:06:41.197Z,99103.92
2023-11-02T06:10:09.972Z,99102.91
2023-11-02T06:13:36.996Z,99097.71
2023-11-02T06:17:04.243Z,99093.73
2023-11-02T06:20:31.422Z,99084.57
2023-11-02T06:23:58.425Z,99088.55
2023-11-02T06:27:25.500Z,99081.45
2023-11-02T06:30:53.056Z,99078.70
2023-11-02T06:34:21.323Z,99075.61
2023-11-02T06:38:02.107Z,99077.23
2023-11-02T06:41:29.356Z,99066.92
2023-11-02T06:44:56.280Z,99053.54
2023-11-02T06:48:23.497Z,99042.56
2023-11-02T06:51:50.585Z,99032.77
2023-11-02T06:55:17.620Z,99030.10
2023-11-02T06:58:44.883Z,99031.06
2023-11-02T07:02:12.865Z,99018.11
2023-11-02T07:05:40.316Z,99008.04
2023-11-02T07:09:08.016Z,99013.27
2023-11-02T07:12:35.757Z,99010.42
2023-11-02T07:16:04.115Z,99011.04
2023-11-02T07:19:31.112Z,99007.82
2023-11-02T07:22:58.285Z,99006.33
2023-11-02T07:26:25.358Z,99011.78
2023-11-02T07:29:52.714Z,99017.59
2023-11-02T07:33:19.829Z,99016.61
2023-11-02T07:36:47.131Z,99019.15
2023-11-02T07:40:15.171Z,99016.14
2023-11-02T07:43:42.313Z,99004.78
2023-11-02T07:47:09.423Z,98999.00
2023-11-02T07:50:36.419Z,98996.86
2023-11-02T07:54:04.997Z,98981.08
2023-11-02T07:57:31.981Z,98972.41
2023-11-02T08:00:59.006Z,98968.30
2023-11-02T08:04:26.155Z,98972.52
2023-11-02T08:07:53.507Z,98975.70
2023-11-02T08:11:20.497Z,98970.83
2023-11-02T08:14:47.443Z,98974.14
2023-11-02T08:18:14.473Z,98961.06
2023-11-02T08:21:41.752Z,98958.77
2023-11-02T08:25:10.719Z,98947.55
2023-11-02T08:28:37.887Z,98940.86
2023-11-02T08:32:05.088Z,98931.61
2023-11-02T08:35:32.123Z,98920.91
2023-11-02T08:38:59.047Z,98907.23
2023-11-02T08:42:30.059Z,98899.81
2023-11-02T08:45:57.028Z,98891.85
2023-11-02T08:49:24.455Z,98891.36
2023-11-02T08:52:51.746Z,98879.87
2023-11-02T08:56:18.999Z,98879.41
2023-11-02T08:59:46.779Z,98879.63
2023-11-02T09:03:13.866Z,98881.23
2023-11-02T09:06:41.800Z,98868.20
2023-11-02T09:10:10.797Z,98864.24
2023-11-02T09:13:38.382Z,98864.30
2023-11-02T09:17:05.943Z,98859.30
2023-11-02T09:20:33.013Z,98866.46
2023-11-02T09:24:00.563Z,98873.49
2023-11-02T09:27:27.627Z,98869.45
2023-11-02T09:30:55.114Z,98857.05
2023-11-02T09:34:22.198Z,98846.73
2023-11-02T09:37:51.042Z,98830.09
2023-11-02T09:41:18.206Z,98825.89
2023-11-02T09:44:45.535Z,98828.15
2023-11-02T09:48:13.604Z,98828.42
2023-11-02T09:51:41.379Z,98821.05
2023-11-02T09:55:09.468Z,98814.89
2023-11-02T09:58:37.961Z,98800.39
2023-11-02T10:02:05.345Z,98796.25
2023-11-02T10:05:33.665Z,98792.58
2023-11-02T10:09:00.827Z,98775.64
2023-11-02T10:12:28.201Z,98754.36
2023-11-02T10:15:56.003Z,98728.08
2023-11-02T10:19:23.327Z,98715.87
2023-11-02T10:23:02.263Z,98705.91
2023-11-02T10:26:30.668Z,98698.65
2023-11-02T10:29:57.892Z,98694.94
2023-11-02T10:33:31.504Z,98687.58
2023-11-02T10:36:59.279Z,98676.55
2023-11-02T10:40:26.293Z,98671.98
2023-11-02T10:43:54.941Z,98665.13
2023-11-02T10:47:25.169Z,98662.59
2023-11-02T10:50:57.820Z,98670.69
2023-11-02T10:54:39.578Z,98670.73
2023-11-02T10:58:09.478Z,98660.27
2023-11-02T11:01:38.340Z,98660.75
2023-11-02T11:05:07.591Z,98656.15
2023-11-02T11:08:36.480Z,98638.05
2023-11-02T11:12:04.299Z,98630.07
2023-11-02T11:15:31.786Z,98614.67
2023-11-02T11:18:59.077Z,98600.11
2023-11-02T11:22:31.452Z,98599.05
2023-11-02T11:26:03.066Z,98596.63
2023-11-02T11:29:37.549Z,98597.77
2023-11-02T11:33:04.963Z,98590.82
2023-11-02T11:36:33.799Z,98591.23
2023-11-02T11:40:01.027Z,98589.08
2023-11-02T11:43:28.443Z,98592.73
2023-11-02T11:46:57.315Z,98594.13
2023-11-02T11:50:35.438Z,98590.71
2023-11-02T11:54:14.612Z,98586.52
2023-11-02T11:58:00.674Z,98582.29
2023-11-02T12:01:28.023Z,98570.69
2023-11-02T12:04:59.002Z,98567.28
2023-11-02T12:08:26.991Z,98560.67
2023-11-02T12:11:53.916Z,98553.12
2023-11-02T12:15:22.733Z,98549.64
2023-11-02T12:18:53.364Z,98539.65
2023-11-02T12:22:20.835Z,98533.94
2023-11-02T12:25:52.014Z,98535.80
2023-11-02T12:29:19.142Z,98525.90
2023-11-02T12:32:46.130Z,98519.02
2023-11-02T12:36:14.406Z,98516.94
2023-11-02T12:39:41.628Z,98519.23
2023-11-02T12:43:09.732Z,98519.49
2023-11-02T12:46:38.727Z,98512.45
2023-11-02T12:50:06.343Z,98507.04
2023-11-02T12:53:36.833Z,98508.88
2023-11-02T12:57:06.710Z,98512.11
2023-11-02T13:00:34.347Z,98513.20
2023-11-02T13:04:05.904Z,98516.20
2023-11-02T13:07:37.472Z,98512.66
2023-11-02T13:11:08.501Z,98508.20
2023-11-02T13:14:35.656Z,98506.10
2023-11-02T13:18:02.876Z,98511.77
2023-11-02T13:21:30.732Z,98510.27
2023-11-02T13:24:59.196Z,98500.07
2023-11-02T13:28:26.469Z,98492.78
2023-11-02T13:31:53.546Z,98483.41
2023-11-02T13:35:20.449Z,98470.77
2023-11-02T13:38:48.927Z,98469.48
2023-11-02T13:42:17.109Z,98461.33
2023-11-02T13:45:44.569Z,98445.23
2023-11-02T13:49:12.280Z,98446.48
2023-11-02T13:52:39.599Z,98452.33
2023-11-02T13:56:12.125Z,98454.59
2023-11-02T13:59:39.382Z,98451.29
2023-11-02T14:03:06.896Z,98442.55
2023-11-02T14:06:35.365Z,98425.64
2023-11-02T14:10:02.930Z,98415.21
2023-11-02T14:13:32.495Z,98398.48
2023-11-02T14:16:59.966Z,98389.87
2023-11-02T14:20:27.701Z,98375.73
2023-11-02T14:23:54.667Z,98371.40
2023-11-02T14:27:23.891Z,98359.84
2023-11-02T14:30:51.810Z,98345.02
2023-11-02T14:34:18.805Z,98335.24
2023-11-02T14:37:46.199Z,98320.52
2023-11-02T14:41:13.441Z,98318.77
2023-11-02T14:44:41.448Z,98324.59
2023-11-02T14:48:10.845Z,98320.79
2023-11-02T14:51:38.107Z,98314.58
2023-11-02T14:55:06.044Z,98310.78
2023-11-02T14:58:33.236Z,98311.18
2023-11-02T15:02:01.407Z,98310.65
2023-11-02T15:05:28.393Z,98318.04
2023-11-02T15:09:01.629Z,98324.88
2023-11-02T15:12:35.327Z,98325.60
2023-11-02T15:16:02.681Z,98331.41
2023-11-02T15:19:31.477Z,98333.19
2023-11-02T15:22:59.789Z,98334.55
2023-11-02T15:26:26.995Z,98343.19
2023-11-02T15:29:54.193Z,98348.66
2023-11-02T15:33:21.148Z,98341.90
2023-11-02T15:36:48.230Z,98331.57
2023-11-02T15:40:16.814Z,98322.48
2023-11-02T15:43:43.881Z,98319.66
2023-11-02T15:47:13.741Z,98312.13
2023-11-02T15:50:40.916Z,98315.42
2023-11-02T15:54:08.552Z,98308.38
2023-11-02T15:57:36.263Z,98301.33
2023-11-02T16:01:04.062Z,98302.15
2023-11-02T16:04:31.646Z,98297.90
2023-11-02T16:07:59.181Z,98297.99
2023-11-02T16:11:26.466Z,98296.50
2023-11-02T16:14:54.806Z,98288.86
2023-11-02T16:18:22.982Z,98288.02
2023-11-02T16:21:50.133Z,98275.95
2023-11-02T16:25:19.838Z,98271.91
2023-11-02T16:28:47.294Z,98273.48
2023-11-02T16:32:14.851Z,98267.87
2023-11-02T16:35:42.657Z,98266.49
2023-11-02T16:39:13.007Z,98262.83
2023-11-02T16:42:41.508Z,98264.05
2023-11-02T16:46:14.214Z,98263.17
2023-11-02T16:49:42.619Z,98264.56
2023-11-02T16:53:09.503Z,98264.41
2023-11-02T16:56:36.603Z,98251.33
2023-11-02T17:00:04.845Z,98243.34
2023-11-02T17:03:41.998Z,98234.48
2023-11-02T17:07:09.062Z,98226.83
2023-11-02T17:10:36.293Z,98222.50
2023-11-02T17:14:03.515Z,98220.27
2023-11-02T17:17:30.696Z,98220.26
2023-11-02T17:20:58.086Z,98216.08
2023-11-02T17:24:25.548Z,98207.23
2023-11-02T17:27:54.857Z,98203.41
2023-11-02T17:31:22.286Z,98202.55
2023-11-02T17:34:49.744Z,98202.21
2023-11-02T17:38:16.925Z,98196.27
2023-11-02T17:41:44.487Z,98195.02
2023-11-02T17:45:12.908Z,98200.78
2023-11-02T17:48:40.800Z,98206.19
2023-11-02T17:52:08.981Z,98200.97
2023-11-02T17:55:36.007Z,98194.91
2023-11-02T17:59:03.362Z,98188.12
2023-11-02T18:02:30.797Z,98188.50
2023-11-02T18:05:58.023Z,98193.10
2023-11-02T18:09:25.755Z,98189.34
2023-11-02T18:12:52.765Z,98188.19
2023-11-02T18:16:20.096Z,98179.90
2023-11-02T18:19:47.594Z,98178.06
2023-11-02T18:23:15.072Z,98180.23
2023-11-02T18:26:42.478Z,98183.11
2023-11-02T18:30:14.830Z,98183.19
2023-11-02T18:33:42.082Z,98183.07
2023-11-02T18:37:09.137Z,98179.41
2023-11-02T18:40:36.170Z,98174.72
2023-11-02T18:44:05.104Z,98176.85
2023-11-02T18:47:34.370Z,98176.39
2023-11-02T18:51:02.021Z,98181.86
2023-11-02T18:54:29.557Z,98176.67
2023-11-02T18:57:57.240Z,98178.35
2023-11-02T19:01:24.516Z,98172.14
2023-11-02T19:04:51.407Z,98172.41
2023-11-02T19:08:19.776Z,98171.95
2023-11-02T19:11:47.671Z,98168.20
2023-11-02T19:15:15.290Z,98171.77
2023-11-02T19:18:42.356Z,98170.35
2023-11-02T19:22:09.632Z,98166.77
2023-11-02T19:25:37.208Z,98166.31
2023-11-02T19:29:05.074Z,98167.55
2023-11-02T19:32:34.310Z,98167.78
2023-11-02T19:36:03.451Z,98165.78
2023-11-02T19:39:30.689Z,98162.23
2023-11-02T19:42:58.229Z,98155.35
2023-11-02T19:46:27.731Z,98152.34
2023-11-02T19:49:54.795Z,98151.98
2023-11-02T19:53:23.147Z,98159.12
2023-11-02T19:56:50.575Z,98157.70
2023-11-02T20:00:19.164Z,98151.90
2023-11-02T20:03:46.274Z,98149.45
2023-11-02T20:07:13.403Z,98144.77
2023-11-02T20:10:40.560Z,98148.45
2023-11-02T20:14:10.305Z,98138.00
2023-11-02T20:17:38.131Z,98128.06
2023-11-02T20:21:07.054Z,98116.77
2023-11-02T20:24:34.102Z,98115.39
2023-11-02T20:28:01.865Z,98100.96
2023-11-02T20:31:29.175Z,98094.20
2023-11-02T20:34:56.621Z,98087.80
2023-11-02T20:38:23.741Z,98085.86
2023-11-02T20:41:50.815Z,98082.19
2023-11-02T20:45:18.641Z,98079.20
2023-11-02T20:48:46.023Z,98073.05
2023-11-02T20:52:13.030Z,98068.82
2023-11-02T20:55:40.356Z,98070.52
2023-11-02T20:59:07.672Z,98068.21
2023-11-02T21:02:34.884Z,98064.88
2023-11-02T21:06:07.236Z,98060.30
2023-11-02T21:09:34.745Z,98061.70
2023-11-02T21:13:03.700Z,98063.96
2023-11-02T21:16:30.810Z,98062.38
2023-11-02T21:19:58.046Z,98063.05
2023-11-02T21:23:31.293Z,98066.17
2023-11-02T21:26:58.500Z,98062.14
2023-11-02T21:30:25.859Z,98061.07
2023-11-02T21:33:53.334Z,98064.73
2023-11-02T21:37:20.966Z,98059.49
2023-11-02T21:40:47.864Z,98063.48
2023-11-02T21:44:15.340Z,98059.26
2023-11-02T21:47:42.672Z,98053.13
2023-11-02T21:51:10.660Z,98057.14
2023-11-02T21:54:41.057Z,98049.80
2023-11-02T21:58:08.529Z,98039.18
2023-11-02T22:01:35.553Z,98026.47
2023-11-02T22:05:03.578Z,98021.45
2023-11-02T22:08:30.654Z,98020.81
2023-11-02T22:11:57.512Z,98015.59
2023-11-02T22:15:24.959Z,98013.83
2023-11-02T22:18:53.033Z,98015.15
2023-11-02T22:22:20.277Z,98014.92
2023-11-02T22:25:47.882Z,98015.53
2023-11-02T22:29:15.181Z,98019.73
2023-11-02T22:32:42.916Z,98025.53
2023-11-02T22:36:12.706Z,98025.10
2023-11-02T22:39:40.003Z,98027.64
2023-11-02T22:43:07.633Z,98019.51
2023-11-02T22:46:34.737Z,98015.41
2023-11-02T22:50:03.966Z,98006.29
2023-11-02T22:53:30.197Z,98007.83
2023-11-02T22:56:57.381Z,98009.35
2023-11-02T23:00:32.299Z,98009.27
2023-11-02T23:04:01.996Z,98006.71
2023-11-02T23:07:29.503Z,97997.84
2023-11-02T23:10:56.622Z,97989.30
2023-11-02T23:14:23.881Z,97974.99
2023-11-02T23:17:51.246Z,97978.30
2023-11-02T23:21:18.641Z,97979.86
2023-11-02T23:24:48.988Z,97977.21
2023-11-02T23:28:16.236Z,97973.52
2023-11-02T23:31:43.236Z,97957.45
2023-11-02T23:35:11.409Z,97948.86
2023-11-02T23:38:38.582Z,97947.95
2023-11-02T23:42:06.808Z,97941.45
2023-11-02T23:45:37.301Z,97941.39
2023-11-02T23:49:05.622Z,97937.37
2023-11-02T23:52:38.645Z,97923.73
2023-11-02T23:56:09.810Z,97914.66
2023-11-02T23:59:41.686Z,97902.06
